Time,TemperatureF,DewpointF,PressureIn,WindDirection,WindDirectionDegrees,WindSpeedMPH,WindSpeedGustMPH,Humidity,HourlyPrecipIn,Conditions,Clouds,dailyrainin,SoftwareType,DateUTC
2013-01-22 00:04:00,61.0,55.0,30.06,NNW,339,0.0,3.0,82,0.00,,,0.00,,2013-01-22 05:04:00,
2013-01-22 00:12:00,61.0,55.0,30.06,NNW,339,0.0,3.0,82,0.00,,,0.00,,2013-01-22 05:12:00,
2013-01-22 00:23:00,61.0,55.0,30.04,North,356,0.0,2.0,81,0.00,,,0.00,,2013-01-22 05:23:00,
2013-01-22 00:32:00,61.0,55.0,30.04,North,356,0.0,2.0,81,0.00,,,0.00,,2013-01-22 05:32:00,
2013-01-22 00:43:00,61.0,55.0,30.04,North,356,0.0,2.0,81,0.00,,,0.00,,2013-01-22 05:43:00,
2013-01-22 00:53:00,61.0,55.0,30.06,North,356,0.0,2.0,82,0.00,,,0.00,,2013-01-22 05:53:00,
2013-01-22 01:02:00,61.0,55.0,30.06,North,356,0.0,2.0,82,0.00,,,0.00,,2013-01-22 06:02:00,
2013-01-22 01:12:00,61.0,55.0,30.06,North,356,0.0,2.0,82,0.00,,,0.00,,2013-01-22 06:12:00,
2013-01-22 01:22:00,61.0,55.0,30.06,North,360,0.0,3.0,81,0.00,,,0.00,,2013-01-22 06:22:00,
2013-01-22 01:33:00,61.0,55.0,30.06,North,360,0.0,3.0,81,0.00,,,0.00,,2013-01-22 06:33:00,
2013-01-22 01:43:00,61.0,55.0,30.06,North,360,0.0,3.0,81,0.00,,,0.00,,2013-01-22 06:43:00,
2013-01-22 01:53:00,60.0,53.0,30.06,NE,35,0.0,3.0,77,0.00,,,0.00,,2013-01-22 06:53:00,
2013-01-22 02:02:00,60.0,53.0,30.06,NE,35,0.0,3.0,77,0.00,,,0.00,,2013-01-22 07:02:00,
2013-01-22 02:12:00,60.0,53.0,30.06,NE,35,0.0,3.0,77,0.00,,,0.00,,2013-01-22 07:12:00,
2013-01-22 02:22:00,60.0,49.0,30.06,NE,48,0.0,4.0,68,0.00,,,0.00,,2013-01-22 07:22:00,
2013-01-22 02:32:00,60.0,49.0,30.06,NE,48,0.0,4.0,68,0.00,,,0.00,,2013-01-22 07:32:00,
2013-01-22 02:43:00,60.0,49.0,30.06,NE,48,0.0,4.0,68,0.00,,,0.00,,2013-01-22 07:43:00,
2013-01-22 02:53:00,60.0,50.0,30.06,North,349,0.0,2.0,69,0.00,,,0.00,,2013-01-22 07:53:00,
2013-01-22 03:02:00,60.0,50.0,30.06,North,349,0.0,2.0,69,0.00,,,0.00,,2013-01-22 08:02:00,
2013-01-22 03:12:00,60.0,50.0,30.06,North,349,0.0,2.0,69,0.00,,,0.00,,2013-01-22 08:12:00,
2013-01-22 03:22:00,59.0,48.0,30.06,North,349,1.0,2.0,68,0.00,,,0.00,,2013-01-22 08:22:00,
2013-01-22 03:32:00,59.0,48.0,30.06,North,349,1.0,2.0,68,0.00,,,0.00,,2013-01-22 08:32:00,
2013-01-22 03:43:00,59.0,48.0,30.06,North,349,1.0,2.0,68,0.00,,,0.00,,2013-01-22 08:43:00,
2013-01-22 03:53:00,59.0,48.0,30.05,NE,47,0.0,3.0,68,0.00,,,0.00,,2013-01-22 08:53:00,
2013-01-22 04:02:00,59.0,48.0,30.05,NE,47,0.0,3.0,68,0.00,,,0.00,,2013-01-22 09:02:00,
2013-01-22 04:12:00,59.0,48.0,30.05,NE,47,0.0,3.0,68,0.00,,,0.00,,2013-01-22 09:12:00,
2013-01-22 04:22:00,58.0,47.0,30.05,NNW,328,0.0,3.0,67,0.00,,,0.00,,2013-01-22 09:22:00,
2013-01-22 04:32:00,58.0,47.0,30.05,NNW,328,0.0,3.0,67,0.00,,,0.00,,2013-01-22 09:32:00,
2013-01-22 04:43:00,58.0,47.0,30.05,NNW,328,0.0,3.0,67,0.00,,,0.00,,2013-01-22 09:43:00,
2013-01-22 04:53:00,57.0,47.0,30.06,NW,323,0.0,3.0,68,0.00,,,0.00,,2013-01-22 09:53:00,
2013-01-22 05:00:00,57.0,47.0,30.06,NW,313,0.0,2.0,68,0.00,,,0.00,,2013-01-22 10:00:00,
2013-01-22 05:02:00,57.0,47.0,30.06,NW,323,0.0,3.0,68,0.00,,,0.00,,2013-01-22 10:02:00,
2013-01-22 05:12:00,57.0,47.0,30.06,NW,323,0.0,3.0,68,0.00,,,0.00,,2013-01-22 10:12:00,
2013-01-22 05:22:00,57.0,47.0,30.06,NW,313,0.0,2.0,68,0.00,,,0.00,,2013-01-22 10:22:00,
2013-01-22 05:32:00,57.0,47.0,30.06,NW,313,0.0,2.0,68,0.00,,,0.00,,2013-01-22 10:32:00,
2013-01-22 05:43:00,57.0,47.0,30.06,NW,313,0.0,2.0,68,0.00,,,0.00,,2013-01-22 10:43:00,
2013-01-22 05:53:00,57.0,47.0,30.06,NW,313,0.0,2.0,68,0.00,,,0.00,,2013-01-22 10:53:00,
2013-01-22 13:24:00,62.0,47.0,30.19,NNE,25,2.0,5.0,58,0.00,,,0.00,,2013-01-22 18:24:00,
2013-01-22 13:34:00,62.0,47.0,30.19,NNE,25,2.0,5.0,58,0.00,,,0.00,,2013-01-22 18:34:00,
2013-01-22 13:44:00,62.0,47.0,30.19,NNE,25,2.0,5.0,58,0.00,,,0.00,,2013-01-22 18:44:00,
2013-01-22 13:54:00,62.0,47.0,30.19,North,6,1.0,6.0,58,0.00,,,0.00,,2013-01-22 18:54:00,
2013-01-22 14:03:00,62.0,47.0,30.19,North,6,1.0,6.0,58,0.00,,,0.00,,2013-01-22 19:03:00,
2013-01-22 14:13:00,62.0,47.0,30.19,North,6,1.0,6.0,58,0.00,,,0.00,,2013-01-22 19:13:00,
2013-01-22 14:24:00,62.0,45.0,30.18,NE,56,3.0,7.0,54,0.00,,,0.00,,2013-01-22 19:24:00,
2013-01-22 14:34:00,62.0,45.0,30.18,NE,56,3.0,7.0,54,0.00,,,0.00,,2013-01-22 19:34:00,
2013-01-22 14:44:00,62.0,45.0,30.18,NE,56,3.0,7.0,54,0.00,,,0.00,,2013-01-22 19:44:00,
2013-01-22 14:54:00,62.0,44.0,30.17,NE,37,3.0,7.0,51,0.00,,,0.00,,2013-01-22 19:54:00,
2013-01-22 15:03:00,62.0,44.0,30.17,NE,37,3.0,7.0,51,0.00,,,0.00,,2013-01-22 20:03:00,
2013-01-22 15:13:00,62.0,44.0,30.17,NE,37,3.0,7.0,51,0.00,,,0.00,,2013-01-22 20:13:00,
2013-01-22 15:23:00,61.0,43.0,30.17,NE,40,1.0,7.0,52,0.00,,,0.00,,2013-01-22 20:23:00,
2013-01-22 15:31:00,61.0,42.0,30.18,NE,44,2.0,7.0,50,0.00,,,0.00,,2013-01-22 20:31:00,
2013-01-22 15:33:00,61.0,43.0,30.17,NE,40,1.0,7.0,52,0.00,,,0.00,,2013-01-22 20:33:00,
2013-01-22 15:43:00,61.0,43.0,30.17,NE,40,1.0,7.0,52,0.00,,,0.00,,2013-01-22 20:43:00,
2013-01-22 15:53:00,61.0,42.0,30.18,NE,44,2.0,7.0,50,0.00,,,0.00,,2013-01-22 20:53:00,
2013-01-22 16:03:00,61.0,42.0,30.18,NE,44,2.0,7.0,50,0.00,,,0.00,,2013-01-22 21:03:00,
2013-01-22 16:13:00,61.0,42.0,30.18,NE,44,2.0,7.0,50,0.00,,,0.00,,2013-01-22 21:13:00,
2013-01-22 16:23:00,61.0,42.0,30.18,NE,44,2.0,7.0,50,0.00,,,0.00,,2013-01-22 21:23:00,
2013-01-22 20:53:00,53.0,42.0,30.25,NE,55,0.0,0.0,65,0.00,,,0.00,,2013-01-23 01:53:00,
2013-01-22 21:03:00,53.0,42.0,30.25,NE,55,0.0,0.0,65,0.00,,,0.00,,2013-01-23 02:03:00,
2013-01-22 21:13:00,53.0,42.0,30.25,NE,55,0.0,0.0,65,0.00,,,0.00,,2013-01-23 02:13:00,
2013-01-22 21:23:00,52.0,41.0,30.25,NE,55,0.0,0.0,67,0.00,,,0.00,,2013-01-23 02:23:00,
2013-01-22 21:33:00,52.0,41.0,30.25,NE,55,0.0,0.0,67,0.00,,,0.00,,2013-01-23 02:33:00,
2013-01-22 21:43:00,52.0,41.0,30.25,NE,55,0.0,0.0,67,0.00,,,0.00,,2013-01-23 02:43:00,
2013-01-22 21:53:00,51.0,41.0,30.25,NE,55,0.0,0.0,69,0.00,,,0.00,,2013-01-23 02:53:00,
2013-01-22 22:03:00,51.0,41.0,30.25,NE,55,0.0,0.0,69,0.00,,,0.00,,2013-01-23 03:03:00,
2013-01-22 22:13:00,51.0,41.0,30.25,NE,55,0.0,0.0,69,0.00,,,0.00,,2013-01-23 03:13:00,
2013-01-22 22:23:00,50.0,42.0,30.26,NE,55,0.0,0.0,73,0.00,,,0.00,,2013-01-23 03:23:00,
2013-01-22 22:33:00,50.0,42.0,30.26,NE,55,0.0,0.0,73,0.00,,,0.00,,2013-01-23 03:33:00,
2013-01-22 22:43:00,50.0,42.0,30.26,NE,55,0.0,0.0,73,0.00,,,0.00,,2013-01-23 03:43:00,
2013-01-22 22:53:00,49.0,42.0,30.26,NE,55,0.0,0.0,76,0.00,,,0.00,,2013-01-23 03:53:00,
2013-01-22 23:03:00,49.0,42.0,30.26,NE,55,0.0,0.0,76,0.00,,,0.00,,2013-01-23 04:03:00,
2013-01-22 23:13:00,49.0,42.0,30.26,NE,55,0.0,0.0,76,0.00,,,0.00,,2013-01-23 04:13:00,
2013-01-22 23:23:00,48.0,41.0,30.26,NE,55,0.0,0.0,77,0.00,,,0.00,,2013-01-23 04:23:00,
2013-01-22 23:33:00,48.0,41.0,30.26,NE,55,0.0,0.0,77,0.00,,,0.00,,2013-01-23 04:33:00,
2013-01-22 23:43:00,48.0,41.0,30.26,NE,55,0.0,0.0,77,0.00,,,0.00,,2013-01-23 04:43:00,
2013-01-22 23:53:00,48.0,41.0,30.25,NE,56,0.0,0.0,78,0.00,,,0.00,,2013-01-23 04:53:00,